Current Weather

Scottsdale

Scottsdale, Arizona (KSDL)

Report from: Sunday, June 26, 2022 9:53 AM MST
Current time: Sunday, June 26, 2022 10:30 AM MST

Nearby weather
Weather history
Weather forecast

Temperature35.0°C (95.0°F)
Heat index34.1°C (93.4°F)
Dew point13.3°C (55.9°F)
Winds 6 kts (3.1 m/s, 6.9 mph) South-Southeast (160°)
Visibility10 mi. (16.1 km)
Clouds Sky clear
Altimeter30.04 in.Hg (1017 mB)
Relative humidity27 %
Density altitude2,350 ft. (716 m)
Sea-level pressure101.4 kPa (1014 mB, 29.94 in.Hg)
Remarks System requires maintenance
Automated weather observing station with precipitation discriminator
Flight conditions Visual Meteorological Conditions
Raw dataKSDL 261653Z 16006KT 10SM CLR 35/13 A3004 RMK AO2 SLP140 T03500133 $
An error has occurred. This application may no longer respond until reloaded. Reload 🗙